Terminal Aerodrome Forecast
Issued by NWS

Current Version | Previous Version | Text Only | Print | Product List | Glossary Off
Versions: 1 2 3 4 5 6 7 8 9 10 11 12 13 14 15 16 17 18 19

881
FTUS41 KPBZ 221120
TAFMGW
TAF
KMGW 221120Z 2212/2312 33004KT P6SM VCSH OVC009
     FM221600 34005KT P6SM -SHRA BKN025
     FM222300 36005KT P6SM BKN020
     FM230200 35003KT P6SM BKN010=

USA.gov is the U.S. government's official web portal to all federal, state and local government web resources and services.